sensor_id;sensor_type;location;lat;lon;timestamp;P1;durP1;ratioP1;P2;durP2;ratioP2
64678;SDS011;51094;53.864;27.676;2024-01-16T00:00:43;3.80;;;3.70;;
64678;SDS011;51094;53.864;27.676;2024-01-16T00:03:10;3.80;;;3.70;;
64678;SDS011;51094;53.864;27.676;2024-01-16T00:05:37;3.55;;;3.45;;
64678;SDS011;51094;53.864;27.676;2024-01-16T00:08:04;4.30;;;4.20;;
64678;SDS011;51094;53.864;27.676;2024-01-16T00:10:31;4.43;;;4.32;;
64678;SDS011;51094;53.864;27.676;2024-01-16T00:12:58;3.38;;;3.38;;
64678;SDS011;51094;53.864;27.676;2024-01-16T00:15:25;4.32;;;4.22;;
64678;SDS011;51094;53.864;27.676;2024-01-16T00:17:52;3.83;;;3.72;;
64678;SDS011;51094;53.864;27.676;2024-01-16T00:20:20;4.10;;;4.00;;
64678;SDS011;51094;53.864;27.676;2024-01-16T00:22:48;4.25;;;4.15;;
64678;SDS011;51094;53.864;27.676;2024-01-16T00:25:15;4.32;;;4.22;;
64678;SDS011;51094;53.864;27.676;2024-01-16T00:27:46;3.88;;;3.80;;
64678;SDS011;51094;53.864;27.676;2024-01-16T00:30:13;3.85;;;3.75;;
64678;SDS011;51094;53.864;27.676;2024-01-16T00:32:41;3.40;;;3.40;;
64678;SDS011;51094;53.864;27.676;2024-01-16T00:35:08;3.20;;;3.20;;
64678;SDS011;51094;53.864;27.676;2024-01-16T00:37:36;3.35;;;3.25;;
64678;SDS011;51094;53.864;27.676;2024-01-16T00:40:04;3.00;;;3.00;;
64678;SDS011;51094;53.864;27.676;2024-01-16T00:42:31;3.30;;;3.20;;
64678;SDS011;51094;53.864;27.676;2024-01-16T00:44:58;3.17;;;3.17;;
64678;SDS011;51094;53.864;27.676;2024-01-16T00:47:25;3.40;;;3.30;;
64678;SDS011;51094;53.864;27.676;2024-01-16T00:49:53;3.47;;;3.38;;
64678;SDS011;51094;53.864;27.676;2024-01-16T00:52:20;3.10;;;3.08;;
64678;SDS011;51094;53.864;27.676;2024-01-16T00:54:47;3.17;;;3.17;;
64678;SDS011;51094;53.864;27.676;2024-01-16T00:57:15;3.05;;;3.05;;
64678;SDS011;51094;53.864;27.676;2024-01-16T00:59:45;3.13;;;3.03;;
64678;SDS011;51094;53.864;27.676;2024-01-16T01:02:13;2.90;;;2.90;;
64678;SDS011;51094;53.864;27.676;2024-01-16T01:04:42;2.80;;;2.80;;
64678;SDS011;51094;53.864;27.676;2024-01-16T01:07:12;2.80;;;2.80;;
64678;SDS011;51094;53.864;27.676;2024-01-16T01:09:40;2.90;;;2.90;;
64678;SDS011;51094;53.864;27.676;2024-01-16T01:12:07;2.63;;;2.63;;
64678;SDS011;51094;53.864;27.676;2024-01-16T01:14:34;2.88;;;2.88;;
64678;SDS011;51094;53.864;27.676;2024-01-16T01:17:01;2.95;;;2.95;;
64678;SDS011;51094;53.864;27.676;2024-01-16T01:19:29;2.67;;;2.67;;
64678;SDS011;51094;53.864;27.676;2024-01-16T01:21:56;2.60;;;2.60;;
64678;SDS011;51094;53.864;27.676;2024-01-16T01:24:24;2.80;;;2.80;;
64678;SDS011;51094;53.864;27.676;2024-01-16T01:26:51;2.83;;;2.83;;
64678;SDS011;51094;53.864;27.676;2024-01-16T01:29:18;2.45;;;2.45;;
64678;SDS011;51094;53.864;27.676;2024-01-16T01:31:45;2.42;;;2.42;;
64678;SDS011;51094;53.864;27.676;2024-01-16T01:34:16;3.17;;;3.17;;
64678;SDS011;51094;53.864;27.676;2024-01-16T01:36:43;2.42;;;2.42;;
64678;SDS011;51094;53.864;27.676;2024-01-16T01:39:10;2.88;;;2.88;;
64678;SDS011;51094;53.864;27.676;2024-01-16T01:41:38;3.13;;;3.13;;
64678;SDS011;51094;53.864;27.676;2024-01-16T01:44:06;2.25;;;2.25;;
64678;SDS011;51094;53.864;27.676;2024-01-16T01:46:33;2.80;;;2.80;;
64678;SDS011;51094;53.864;27.676;2024-01-16T01:49:02;2.33;;;2.33;;
64678;SDS011;51094;53.864;27.676;2024-01-16T01:51:29;2.15;;;2.15;;
64678;SDS011;51094;53.864;27.676;2024-01-16T01:53:57;2.08;;;2.08;;
64678;SDS011;51094;53.864;27.676;2024-01-16T01:56:25;1.88;;;1.88;;
64678;SDS011;51094;53.864;27.676;2024-01-16T01:58:55;1.60;;;1.60;;
64678;SDS011;51094;53.864;27.676;2024-01-16T02:01:24;1.80;;;1.80;;
64678;SDS011;51094;53.864;27.676;2024-01-16T02:03:53;1.80;;;1.80;;
64678;SDS011;51094;53.864;27.676;2024-01-16T02:06:23;1.60;;;1.60;;
64678;SDS011;51094;53.864;27.676;2024-01-16T02:08:50;1.50;;;1.50;;
64678;SDS011;51094;53.864;27.676;2024-01-16T02:11:18;1.67;;;1.67;;
64678;SDS011;51094;53.864;27.676;2024-01-16T02:13:45;1.45;;;1.45;;
64678;SDS011;51094;53.864;27.676;2024-01-16T02:16:22;1.70;;;1.70;;
64678;SDS011;51094;53.864;27.676;2024-01-16T02:18:50;1.55;;;1.55;;
64678;SDS011;51094;53.864;27.676;2024-01-16T02:21:22;1.55;;;1.55;;
64678;SDS011;51094;53.864;27.676;2024-01-16T02:23:49;1.90;;;1.90;;
64678;SDS011;51094;53.864;27.676;2024-01-16T02:26:17;1.63;;;1.63;;
64678;SDS011;51094;53.864;27.676;2024-01-16T02:28:47;2.10;;;2.10;;
64678;SDS011;51094;53.864;27.676;2024-01-16T02:31:14;1.90;;;1.90;;
64678;SDS011;51094;53.864;27.676;2024-01-16T02:33:41;1.90;;;1.90;;
64678;SDS011;51094;53.864;27.676;2024-01-16T02:36:08;2.40;;;2.40;;
64678;SDS011;51094;53.864;27.676;2024-01-16T02:38:35;2.20;;;2.20;;
64678;SDS011;51094;53.864;27.676;2024-01-16T02:41:03;2.38;;;2.38;;
64678;SDS011;51094;53.864;27.676;2024-01-16T02:43:30;2.22;;;2.22;;
64678;SDS011;51094;53.864;27.676;2024-01-16T02:45:57;2.25;;;2.25;;
64678;SDS011;51094;53.864;27.676;2024-01-16T02:48:24;2.30;;;2.30;;
64678;SDS011;51094;53.864;27.676;2024-01-16T02:50:52;2.25;;;2.25;;
64678;SDS011;51094;53.864;27.676;2024-01-16T02:53:19;2.00;;;2.00;;
64678;SDS011;51094;53.864;27.676;2024-01-16T02:55:46;1.85;;;1.85;;
64678;SDS011;51094;53.864;27.676;2024-01-16T02:58:13;1.60;;;1.60;;
64678;SDS011;51094;53.864;27.676;2024-01-16T03:00:40;1.80;;;1.80;;
64678;SDS011;51094;53.864;27.676;2024-01-16T03:03:07;1.70;;;1.70;;
64678;SDS011;51094;53.864;27.676;2024-01-16T03:05:35;1.90;;;1.90;;
64678;SDS011;51094;53.864;27.676;2024-01-16T03:08:02;1.70;;;1.70;;
64678;SDS011;51094;53.864;27.676;2024-01-16T03:10:30;1.75;;;1.75;;
64678;SDS011;51094;53.864;27.676;2024-01-16T03:12:57;2.70;;;2.70;;
64678;SDS011;51094;53.864;27.676;2024-01-16T03:15:24;2.08;;;2.08;;
64678;SDS011;51094;53.864;27.676;2024-01-16T03:17:51;1.38;;;1.38;;
64678;SDS011;51094;53.864;27.676;2024-01-16T03:20:18;1.10;;;1.10;;
64678;SDS011;51094;53.864;27.676;2024-01-16T03:22:45;1.40;;;1.40;;
64678;SDS011;51094;53.864;27.676;2024-01-16T03:25:12;1.17;;;1.17;;
64678;SDS011;51094;53.864;27.676;2024-01-16T03:27:39;1.30;;;1.30;;
64678;SDS011;51094;53.864;27.676;2024-01-16T03:30:06;1.20;;;1.20;;
64678;SDS011;51094;53.864;27.676;2024-01-16T03:32:38;1.17;;;1.17;;
64678;SDS011;51094;53.864;27.676;2024-01-16T03:37:33;1.00;;;1.00;;
64678;SDS011;51094;53.864;27.676;2024-01-16T03:40:00;0.98;;;0.98;;
64678;SDS011;51094;53.864;27.676;2024-01-16T03:42:27;1.70;;;1.70;;
64678;SDS011;51094;53.864;27.676;2024-01-16T03:44:54;1.10;;;1.10;;
64678;SDS011;51094;53.864;27.676;2024-01-16T03:47:21;1.00;;;1.00;;
64678;SDS011;51094;53.864;27.676;2024-01-16T03:49:50;1.20;;;1.20;;
64678;SDS011;51094;53.864;27.676;2024-01-16T03:52:17;0.95;;;0.95;;
64678;SDS011;51094;53.864;27.676;2024-01-16T03:54:44;1.00;;;1.00;;
64678;SDS011;51094;53.864;27.676;2024-01-16T03:57:11;1.00;;;1.00;;
64678;SDS011;51094;53.864;27.676;2024-01-16T03:59:38;0.90;;;0.90;;
64678;SDS011;51094;53.864;27.676;2024-01-16T04:02:05;1.40;;;1.40;;
64678;SDS011;51094;53.864;27.676;2024-01-16T04:04:32;0.70;;;0.70;;
64678;SDS011;51094;53.864;27.676;2024-01-16T04:06:59;1.73;;;1.73;;
64678;SDS011;51094;53.864;27.676;2024-01-16T04:09:26;1.23;;;1.23;;
64678;SDS011;51094;53.864;27.676;2024-01-16T04:11:53;0.98;;;0.98;;
64678;SDS011;51094;53.864;27.676;2024-01-16T04:14:20;1.10;;;1.10;;
64678;SDS011;51094;53.864;27.676;2024-01-16T04:16:48;1.40;;;1.40;;
64678;SDS011;51094;53.864;27.676;2024-01-16T04:19:15;0.85;;;0.85;;
64678;SDS011;51094;53.864;27.676;2024-01-16T04:21:42;0.90;;;0.90;;
64678;SDS011;51094;53.864;27.676;2024-01-16T04:24:09;1.10;;;1.10;;
64678;SDS011;51094;53.864;27.676;2024-01-16T04:26:36;0.90;;;0.90;;
64678;SDS011;51094;53.864;27.676;2024-01-16T04:29:04;0.93;;;0.93;;
64678;SDS011;51094;53.864;27.676;2024-01-16T04:31:32;0.90;;;0.90;;
64678;SDS011;51094;53.864;27.676;2024-01-16T04:34:05;1.00;;;1.00;;
64678;SDS011;51094;53.864;27.676;2024-01-16T04:36:32;0.80;;;0.80;;
64678;SDS011;51094;53.864;27.676;2024-01-16T04:38:59;0.80;;;0.80;;
64678;SDS011;51094;53.864;27.676;2024-01-16T04:41:26;0.80;;;0.80;;
64678;SDS011;51094;53.864;27.676;2024-01-16T04:43:54;0.88;;;0.88;;
64678;SDS011;51094;53.864;27.676;2024-01-16T04:46:20;0.90;;;0.90;;
64678;SDS011;51094;53.864;27.676;2024-01-16T04:48:47;0.90;;;0.90;;
64678;SDS011;51094;53.864;27.676;2024-01-16T04:51:15;1.05;;;1.05;;
64678;SDS011;51094;53.864;27.676;2024-01-16T04:53:41;0.90;;;0.90;;
64678;SDS011;51094;53.864;27.676;2024-01-16T04:56:09;0.90;;;0.90;;
64678;SDS011;51094;53.864;27.676;2024-01-16T04:58:36;0.85;;;0.85;;
64678;SDS011;51094;53.864;27.676;2024-01-16T05:01:02;0.90;;;0.90;;
64678;SDS011;51094;53.864;27.676;2024-01-16T05:03:29;0.90;;;0.90;;
64678;SDS011;51094;53.864;27.676;2024-01-16T05:05:56;0.93;;;0.93;;
64678;SDS011;51094;53.864;27.676;2024-01-16T05:08:24;0.93;;;0.93;;
64678;SDS011;51094;53.864;27.676;2024-01-16T05:10:51;0.80;;;0.80;;
64678;SDS011;51094;53.864;27.676;2024-01-16T05:13:18;0.90;;;0.90;;
64678;SDS011;51094;53.864;27.676;2024-01-16T05:15:45;1.00;;;1.00;;
64678;SDS011;51094;53.864;27.676;2024-01-16T05:18:12;1.00;;;1.00;;
64678;SDS011;51094;53.864;27.676;2024-01-16T05:20:40;0.82;;;0.82;;
64678;SDS011;51094;53.864;27.676;2024-01-16T05:23:07;0.90;;;0.90;;
64678;SDS011;51094;53.864;27.676;2024-01-16T05:25:34;0.80;;;0.80;;
64678;SDS011;51094;53.864;27.676;2024-01-16T05:28:01;1.00;;;1.00;;
64678;SDS011;51094;53.864;27.676;2024-01-16T05:30:28;0.60;;;0.60;;
64678;SDS011;51094;53.864;27.676;2024-01-16T05:32:55;0.88;;;0.88;;
64678;SDS011;51094;53.864;27.676;2024-01-16T05:35:22;1.30;;;1.30;;
64678;SDS011;51094;53.864;27.676;2024-01-16T05:37:51;2.70;;;2.60;;
64678;SDS011;51094;53.864;27.676;2024-01-16T05:40:18;2.00;;;2.00;;
64678;SDS011;51094;53.864;27.676;2024-01-16T05:42:45;5.25;;;5.15;;
64678;SDS011;51094;53.864;27.676;2024-01-16T05:45:12;1.40;;;1.40;;
64678;SDS011;51094;53.864;27.676;2024-01-16T05:47:40;1.10;;;1.10;;
64678;SDS011;51094;53.864;27.676;2024-01-16T05:50:07;1.05;;;1.05;;
64678;SDS011;51094;53.864;27.676;2024-01-16T05:52:36;1.00;;;1.00;;
64678;SDS011;51094;53.864;27.676;2024-01-16T05:55:03;0.93;;;0.93;;
64678;SDS011;51094;53.864;27.676;2024-01-16T05:57:30;1.08;;;1.08;;
64678;SDS011;51094;53.864;27.676;2024-01-16T06:00:00;0.90;;;0.90;;
64678;SDS011;51094;53.864;27.676;2024-01-16T06:02:30;1.13;;;1.13;;
64678;SDS011;51094;53.864;27.676;2024-01-16T06:04:58;1.23;;;1.23;;
64678;SDS011;51094;53.864;27.676;2024-01-16T06:07:25;1.52;;;1.52;;
64678;SDS011;51094;53.864;27.676;2024-01-16T06:09:52;1.35;;;1.35;;
64678;SDS011;51094;53.864;27.676;2024-01-16T06:12:19;1.58;;;1.58;;
64678;SDS011;51094;53.864;27.676;2024-01-16T06:14:46;1.20;;;1.20;;
64678;SDS011;51094;53.864;27.676;2024-01-16T06:17:13;1.20;;;1.20;;
64678;SDS011;51094;53.864;27.676;2024-01-16T06:19:40;1.00;;;1.00;;
64678;SDS011;51094;53.864;27.676;2024-01-16T06:22:07;1.27;;;1.27;;
64678;SDS011;51094;53.864;27.676;2024-01-16T06:24:35;1.20;;;1.20;;
64678;SDS011;51094;53.864;27.676;2024-01-16T06:27:04;0.80;;;0.80;;
64678;SDS011;51094;53.864;27.676;2024-01-16T06:29:32;1.00;;;1.00;;
64678;SDS011;51094;53.864;27.676;2024-01-16T06:32:01;1.55;;;1.55;;
64678;SDS011;51094;53.864;27.676;2024-01-16T06:34:28;1.35;;;1.35;;
64678;SDS011;51094;53.864;27.676;2024-01-16T06:36:55;1.25;;;1.25;;
64678;SDS011;51094;53.864;27.676;2024-01-16T06:39:23;1.60;;;1.60;;
64678;SDS011;51094;53.864;27.676;2024-01-16T06:41:52;2.22;;;2.22;;
64678;SDS011;51094;53.864;27.676;2024-01-16T06:44:19;2.10;;;2.10;;
64678;SDS011;51094;53.864;27.676;2024-01-16T06:46:46;5.65;;;5.45;;
64678;SDS011;51094;53.864;27.676;2024-01-16T06:49:13;6.97;;;6.78;;
64678;SDS011;51094;53.864;27.676;2024-01-16T06:51:40;3.35;;;3.25;;
64678;SDS011;51094;53.864;27.676;2024-01-16T06:54:07;4.00;;;3.90;;
64678;SDS011;51094;53.864;27.676;2024-01-16T06:56:34;7.38;;;7.18;;
64678;SDS011;51094;53.864;27.676;2024-01-16T06:59:01;6.28;;;6.07;;
64678;SDS011;51094;53.864;27.676;2024-01-16T07:01:28;3.85;;;3.75;;
64678;SDS011;51094;53.864;27.676;2024-01-16T07:03:55;3.25;;;3.15;;
64678;SDS011;51094;53.864;27.676;2024-01-16T07:06:22;1.80;;;1.80;;
64678;SDS011;51094;53.864;27.676;2024-01-16T07:08:49;1.40;;;1.40;;
64678;SDS011;51094;53.864;27.676;2024-01-16T07:11:16;0.90;;;0.90;;
64678;SDS011;51094;53.864;27.676;2024-01-16T07:13:43;0.75;;;0.75;;
64678;SDS011;51094;53.864;27.676;2024-01-16T07:16:10;0.90;;;0.90;;
64678;SDS011;51094;53.864;27.676;2024-01-16T07:18:38;0.75;;;0.75;;
64678;SDS011;51094;53.864;27.676;2024-01-16T07:21:19;0.90;;;0.90;;
64678;SDS011;51094;53.864;27.676;2024-01-16T07:23:47;0.70;;;0.70;;
64678;SDS011;51094;53.864;27.676;2024-01-16T07:26:15;0.68;;;0.68;;
64678;SDS011;51094;53.864;27.676;2024-01-16T07:28:43;0.70;;;0.70;;
64678;SDS011;51094;53.864;27.676;2024-01-16T07:31:10;0.60;;;0.60;;
64678;SDS011;51094;53.864;27.676;2024-01-16T07:33:38;0.70;;;0.70;;
64678;SDS011;51094;53.864;27.676;2024-01-16T07:36:05;0.70;;;0.70;;
64678;SDS011;51094;53.864;27.676;2024-01-16T07:41:03;0.60;;;0.60;;
64678;SDS011;51094;53.864;27.676;2024-01-16T07:43:30;0.80;;;0.80;;
64678;SDS011;51094;53.864;27.676;2024-01-16T07:45:57;0.70;;;0.70;;
64678;SDS011;51094;53.864;27.676;2024-01-16T07:48:24;0.60;;;0.60;;
64678;SDS011;51094;53.864;27.676;2024-01-16T07:50:51;0.90;;;0.90;;
64678;SDS011;51094;53.864;27.676;2024-01-16T07:53:19;0.60;;;0.60;;
64678;SDS011;51094;53.864;27.676;2024-01-16T07:55:46;0.60;;;0.60;;
64678;SDS011;51094;53.864;27.676;2024-01-16T07:58:15;0.80;;;0.80;;
64678;SDS011;51094;53.864;27.676;2024-01-16T08:00:41;0.90;;;0.90;;
64678;SDS011;51094;53.864;27.676;2024-01-16T08:03:08;1.33;;;1.33;;
64678;SDS011;51094;53.864;27.676;2024-01-16T08:05:39;0.70;;;0.70;;
64678;SDS011;51094;53.864;27.676;2024-01-16T08:08:09;0.80;;;0.80;;
64678;SDS011;51094;53.864;27.676;2024-01-16T08:10:36;0.80;;;0.80;;
64678;SDS011;51094;53.864;27.676;2024-01-16T08:13:03;0.90;;;0.90;;
64678;SDS011;51094;53.864;27.676;2024-01-16T08:15:30;1.00;;;1.00;;
64678;SDS011;51094;53.864;27.676;2024-01-16T08:17:57;0.90;;;0.90;;
64678;SDS011;51094;53.864;27.676;2024-01-16T08:20:25;0.90;;;0.90;;
64678;SDS011;51094;53.864;27.676;2024-01-16T08:22:53;0.90;;;0.90;;
64678;SDS011;51094;53.864;27.676;2024-01-16T08:25:20;1.00;;;1.00;;
64678;SDS011;51094;53.864;27.676;2024-01-16T08:27:47;0.90;;;0.90;;
64678;SDS011;51094;53.864;27.676;2024-01-16T08:30:14;1.10;;;1.10;;
64678;SDS011;51094;53.864;27.676;2024-01-16T08:32:41;1.00;;;1.00;;
64678;SDS011;51094;53.864;27.676;2024-01-16T08:35:08;1.00;;;1.00;;
64678;SDS011;51094;53.864;27.676;2024-01-16T08:37:36;1.10;;;1.10;;
64678;SDS011;51094;53.864;27.676;2024-01-16T08:40:03;0.90;;;0.90;;
64678;SDS011;51094;53.864;27.676;2024-01-16T08:42:34;1.08;;;1.08;;
64678;SDS011;51094;53.864;27.676;2024-01-16T08:47:29;1.00;;;1.00;;
64678;SDS011;51094;53.864;27.676;2024-01-16T08:49:56;1.00;;;1.00;;
64678;SDS011;51094;53.864;27.676;2024-01-16T08:52:23;0.90;;;0.90;;
64678;SDS011;51094;53.864;27.676;2024-01-16T08:54:50;0.95;;;0.95;;
64678;SDS011;51094;53.864;27.676;2024-01-16T08:57:17;1.05;;;1.05;;
64678;SDS011;51094;53.864;27.676;2024-01-16T08:59:48;1.00;;;1.00;;
64678;SDS011;51094;53.864;27.676;2024-01-16T09:02:15;0.82;;;0.82;;
64678;SDS011;51094;53.864;27.676;2024-01-16T09:04:42;0.90;;;0.90;;
64678;SDS011;51094;53.864;27.676;2024-01-16T09:07:09;0.82;;;0.82;;
64678;SDS011;51094;53.864;27.676;2024-01-16T09:09:37;0.90;;;0.90;;
64678;SDS011;51094;53.864;27.676;2024-01-16T09:12:04;1.20;;;1.20;;
64678;SDS011;51094;53.864;27.676;2024-01-16T09:14:31;1.00;;;1.00;;
64678;SDS011;51094;53.864;27.676;2024-01-16T09:16:58;0.82;;;0.82;;
64678;SDS011;51094;53.864;27.676;2024-01-16T09:19:24;0.90;;;0.90;;
64678;SDS011;51094;53.864;27.676;2024-01-16T09:21:53;1.00;;;1.00;;
64678;SDS011;51094;53.864;27.676;2024-01-16T09:24:20;1.10;;;1.10;;
64678;SDS011;51094;53.864;27.676;2024-01-16T09:26:47;1.10;;;1.10;;
64678;SDS011;51094;53.864;27.676;2024-01-16T09:29:14;1.00;;;1.00;;
64678;SDS011;51094;53.864;27.676;2024-01-16T09:31:41;1.00;;;1.00;;
64678;SDS011;51094;53.864;27.676;2024-01-16T09:34:09;1.10;;;1.10;;
64678;SDS011;51094;53.864;27.676;2024-01-16T09:36:36;1.27;;;1.27;;
64678;SDS011;51094;53.864;27.676;2024-01-16T09:39:04;1.20;;;1.20;;
64678;SDS011;51094;53.864;27.676;2024-01-16T09:41:37;1.33;;;1.33;;
64678;SDS011;51094;53.864;27.676;2024-01-16T09:44:05;1.08;;;1.08;;
64678;SDS011;51094;53.864;27.676;2024-01-16T09:46:34;1.00;;;1.00;;
64678;SDS011;51094;53.864;27.676;2024-01-16T09:49:05;1.00;;;1.00;;
64678;SDS011;51094;53.864;27.676;2024-01-16T09:51:33;1.00;;;1.00;;
64678;SDS011;51094;53.864;27.676;2024-01-16T09:54:00;0.85;;;0.85;;
64678;SDS011;51094;53.864;27.676;2024-01-16T09:56:31;1.00;;;1.00;;
64678;SDS011;51094;53.864;27.676;2024-01-16T09:59:01;1.10;;;1.10;;
64678;SDS011;51094;53.864;27.676;2024-01-16T10:01:32;0.90;;;0.90;;
64678;SDS011;51094;53.864;27.676;2024-01-16T10:04:00;0.98;;;0.98;;
64678;SDS011;51094;53.864;27.676;2024-01-16T10:06:27;1.00;;;1.00;;
64678;SDS011;51094;53.864;27.676;2024-01-16T10:08:56;0.90;;;0.90;;
64678;SDS011;51094;53.864;27.676;2024-01-16T10:11:23;1.00;;;1.00;;
64678;SDS011;51094;53.864;27.676;2024-01-16T10:13:50;1.10;;;1.10;;
64678;SDS011;51094;53.864;27.676;2024-01-16T10:16:17;1.00;;;1.00;;
64678;SDS011;51094;53.864;27.676;2024-01-16T10:18:47;1.30;;;1.30;;
64678;SDS011;51094;53.864;27.676;2024-01-16T10:21:21;1.20;;;1.20;;
64678;SDS011;51094;53.864;27.676;2024-01-16T10:23:49;1.10;;;1.10;;
64678;SDS011;51094;53.864;27.676;2024-01-16T10:26:16;1.30;;;1.30;;
64678;SDS011;51094;53.864;27.676;2024-01-16T10:28:45;1.20;;;1.20;;
64678;SDS011;51094;53.864;27.676;2024-01-16T10:31:18;1.10;;;1.10;;
64678;SDS011;51094;53.864;27.676;2024-01-16T10:33:46;1.20;;;1.20;;
64678;SDS011;51094;53.864;27.676;2024-01-16T10:36:16;1.10;;;1.10;;
64678;SDS011;51094;53.864;27.676;2024-01-16T10:38:46;1.20;;;1.20;;
64678;SDS011;51094;53.864;27.676;2024-01-16T10:41:14;1.02;;;1.02;;
64678;SDS011;51094;53.864;27.676;2024-01-16T10:43:44;0.90;;;0.90;;
64678;SDS011;51094;53.864;27.676;2024-01-16T10:48:40;0.95;;;0.95;;
64678;SDS011;51094;53.864;27.676;2024-01-16T10:51:15;0.90;;;0.90;;
64678;SDS011;51094;53.864;27.676;2024-01-16T10:53:42;0.80;;;0.80;;
64678;SDS011;51094;53.864;27.676;2024-01-16T10:56:11;1.00;;;1.00;;
64678;SDS011;51094;53.864;27.676;2024-01-16T10:58:42;1.23;;;1.23;;
64678;SDS011;51094;53.864;27.676;2024-01-16T11:01:10;1.20;;;1.20;;
64678;SDS011;51094;53.864;27.676;2024-01-16T11:06:09;1.00;;;1.00;;
64678;SDS011;51094;53.864;27.676;2024-01-16T11:08:37;1.02;;;1.02;;
64678;SDS011;51094;53.864;27.676;2024-01-16T11:11:05;1.17;;;1.17;;
64678;SDS011;51094;53.864;27.676;2024-01-16T11:13:35;1.10;;;1.10;;
64678;SDS011;51094;53.864;27.676;2024-01-16T11:16:03;1.08;;;1.08;;
64678;SDS011;51094;53.864;27.676;2024-01-16T11:18:31;1.00;;;1.00;;
64678;SDS011;51094;53.864;27.676;2024-01-16T11:21:20;1.00;;;1.00;;
64678;SDS011;51094;53.864;27.676;2024-01-16T11:23:48;1.00;;;1.00;;
64678;SDS011;51094;53.864;27.676;2024-01-16T11:26:28;0.98;;;0.98;;
64678;SDS011;51094;53.864;27.676;2024-01-16T11:29:00;0.90;;;0.90;;
64678;SDS011;51094;53.864;27.676;2024-01-16T11:31:47;0.90;;;0.90;;
64678;SDS011;51094;53.864;27.676;2024-01-16T11:34:14;1.00;;;1.00;;
64678;SDS011;51094;53.864;27.676;2024-01-16T11:36:51;0.90;;;0.90;;
64678;SDS011;51094;53.864;27.676;2024-01-16T11:39:23;0.90;;;0.90;;
64678;SDS011;51094;53.864;27.676;2024-01-16T11:41:52;1.05;;;1.05;;
64678;SDS011;51094;53.864;27.676;2024-01-16T11:47:08;0.90;;;0.90;;
64678;SDS011;51094;53.864;27.676;2024-01-16T11:49:44;0.98;;;0.98;;
64678;SDS011;51094;53.864;27.676;2024-01-16T11:52:12;0.80;;;0.80;;
64678;SDS011;51094;53.864;27.676;2024-01-16T11:54:40;0.90;;;0.90;;
64678;SDS011;51094;53.864;27.676;2024-01-16T12:00:03;0.90;;;0.90;;
64678;SDS011;51094;53.864;27.676;2024-01-16T12:05:11;1.00;;;1.00;;
64678;SDS011;51094;53.864;27.676;2024-01-16T12:07:49;1.00;;;1.00;;
64678;SDS011;51094;53.864;27.676;2024-01-16T12:10:21;1.00;;;1.00;;
64678;SDS011;51094;53.864;27.676;2024-01-16T12:12:50;1.10;;;1.10;;
64678;SDS011;51094;53.864;27.676;2024-01-16T12:15:18;0.95;;;0.95;;
64678;SDS011;51094;53.864;27.676;2024-01-16T12:17:56;1.10;;;1.10;;
64678;SDS011;51094;53.864;27.676;2024-01-16T12:20:29;1.10;;;1.10;;
64678;SDS011;51094;53.864;27.676;2024-01-16T12:22:59;1.00;;;1.00;;
64678;SDS011;51094;53.864;27.676;2024-01-16T12:25:27;1.10;;;1.10;;
64678;SDS011;51094;53.864;27.676;2024-01-16T12:28:16;1.10;;;1.10;;
64678;SDS011;51094;53.864;27.676;2024-01-16T12:30:58;1.00;;;1.00;;
64678;SDS011;51094;53.864;27.676;2024-01-16T12:33:26;0.90;;;0.90;;
64678;SDS011;51094;53.864;27.676;2024-01-16T12:36:01;0.90;;;0.90;;
64678;SDS011;51094;53.864;27.676;2024-01-16T12:38:30;0.85;;;0.85;;
64678;SDS011;51094;53.864;27.676;2024-01-16T12:40:57;0.90;;;0.90;;
64678;SDS011;51094;53.864;27.676;2024-01-16T12:43:25;1.00;;;1.00;;
64678;SDS011;51094;53.864;27.676;2024-01-16T12:45:56;0.90;;;0.90;;
64678;SDS011;51094;53.864;27.676;2024-01-16T12:48:26;1.00;;;1.00;;
64678;SDS011;51094;53.864;27.676;2024-01-16T12:51:01;1.10;;;1.10;;
64678;SDS011;51094;53.864;27.676;2024-01-16T12:53:31;0.90;;;0.90;;
64678;SDS011;51094;53.864;27.676;2024-01-16T12:55:59;1.00;;;1.00;;
64678;SDS011;51094;53.864;27.676;2024-01-16T12:58:36;1.08;;;1.08;;
64678;SDS011;51094;53.864;27.676;2024-01-16T13:01:23;1.00;;;1.00;;
64678;SDS011;51094;53.864;27.676;2024-01-16T13:04:05;0.93;;;0.93;;
64678;SDS011;51094;53.864;27.676;2024-01-16T13:06:33;0.90;;;0.90;;
64678;SDS011;51094;53.864;27.676;2024-01-16T13:09:07;1.10;;;1.10;;
64678;SDS011;51094;53.864;27.676;2024-01-16T13:14:22;1.13;;;1.13;;
64678;SDS011;51094;53.864;27.676;2024-01-16T13:16:50;0.90;;;0.90;;
64678;SDS011;51094;53.864;27.676;2024-01-16T13:19:18;1.00;;;1.00;;
64678;SDS011;51094;53.864;27.676;2024-01-16T13:21:47;0.93;;;0.93;;
64678;SDS011;51094;53.864;27.676;2024-01-16T13:24:15;0.93;;;0.93;;
64678;SDS011;51094;53.864;27.676;2024-01-16T13:26:44;0.90;;;0.90;;
64678;SDS011;51094;53.864;27.676;2024-01-16T13:29:12;0.93;;;0.93;;
64678;SDS011;51094;53.864;27.676;2024-01-16T13:31:39;1.00;;;1.00;;
64678;SDS011;51094;53.864;27.676;2024-01-16T13:34:06;0.70;;;0.70;;
64678;SDS011;51094;53.864;27.676;2024-01-16T13:36:34;0.80;;;0.80;;
64678;SDS011;51094;53.864;27.676;2024-01-16T13:39:21;0.90;;;0.90;;
64678;SDS011;51094;53.864;27.676;2024-01-16T13:41:48;0.90;;;0.90;;
64678;SDS011;51094;53.864;27.676;2024-01-16T13:44:15;0.80;;;0.80;;
64678;SDS011;51094;53.864;27.676;2024-01-16T13:46:42;0.80;;;0.80;;
64678;SDS011;51094;53.864;27.676;2024-01-16T13:49:27;0.90;;;0.90;;
64678;SDS011;51094;53.864;27.676;2024-01-16T13:51:54;0.90;;;0.90;;
64678;SDS011;51094;53.864;27.676;2024-01-16T13:54:21;1.00;;;1.00;;
64678;SDS011;51094;53.864;27.676;2024-01-16T13:56:48;0.73;;;0.73;;
64678;SDS011;51094;53.864;27.676;2024-01-16T13:59:32;0.80;;;0.80;;
64678;SDS011;51094;53.864;27.676;2024-01-16T14:02:01;0.70;;;0.70;;
64678;SDS011;51094;53.864;27.676;2024-01-16T14:04:29;0.80;;;0.80;;
64678;SDS011;51094;53.864;27.676;2024-01-16T14:06:56;0.73;;;0.73;;
64678;SDS011;51094;53.864;27.676;2024-01-16T14:09:39;0.60;;;0.60;;
64678;SDS011;51094;53.864;27.676;2024-01-16T14:12:08;0.43;;;0.43;;
64678;SDS011;51094;53.864;27.676;2024-01-16T14:14:35;0.50;;;0.50;;
64678;SDS011;51094;53.864;27.676;2024-01-16T14:17:05;0.50;;;0.50;;
64678;SDS011;51094;53.864;27.676;2024-01-16T14:19:35;0.50;;;0.50;;
64678;SDS011;51094;53.864;27.676;2024-01-16T14:22:02;0.70;;;0.60;;
64678;SDS011;51094;53.864;27.676;2024-01-16T14:24:29;0.70;;;0.70;;
64678;SDS011;51094;53.864;27.676;2024-01-16T14:26:56;0.70;;;0.70;;
64678;SDS011;51094;53.864;27.676;2024-01-16T14:29:24;0.50;;;0.50;;
64678;SDS011;51094;53.864;27.676;2024-01-16T14:31:58;0.40;;;0.40;;
64678;SDS011;51094;53.864;27.676;2024-01-16T14:34:25;0.40;;;0.40;;
64678;SDS011;51094;53.864;27.676;2024-01-16T14:36:53;0.40;;;0.40;;
64678;SDS011;51094;53.864;27.676;2024-01-16T14:39:20;0.40;;;0.40;;
64678;SDS011;51094;53.864;27.676;2024-01-16T14:41:53;0.35;;;0.35;;
64678;SDS011;51094;53.864;27.676;2024-01-16T14:44:20;0.50;;;0.50;;
64678;SDS011;51094;53.864;27.676;2024-01-16T14:46:47;0.60;;;0.60;;
64678;SDS011;51094;53.864;27.676;2024-01-16T14:49:18;0.50;;;0.50;;
64678;SDS011;51094;53.864;27.676;2024-01-16T14:51:45;0.50;;;0.50;;
64678;SDS011;51094;53.864;27.676;2024-01-16T14:54:13;0.47;;;0.47;;
64678;SDS011;51094;53.864;27.676;2024-01-16T14:56:40;0.47;;;0.47;;
64678;SDS011;51094;53.864;27.676;2024-01-16T14:59:07;0.50;;;0.50;;
64678;SDS011;51094;53.864;27.676;2024-01-16T15:01:40;0.50;;;0.50;;
64678;SDS011;51094;53.864;27.676;2024-01-16T15:04:11;0.40;;;0.40;;